Time;durP1;ratioP1;P1;durP2;ratioP2;P2;SDS_P1;SDS_P2;PMS_P1;PMS_P2;Temp;Humidity;BMP_temperature;BMP_pressure;BME280_temperature;BME280_humidity;BME280_pressure;Samples;Min_cycle;Max_cycle;Signal;HPM_P1;HPM_P2
2021/12/26 00:00:34;;;;;;;1.73;1.53;;;16.60;81.30;;;16.49;38.35;100356.88;4946183;28;100280;-47
2021/12/26 00:03:00;;;;;;;1.27;1.10;;;16.60;81.70;;;16.49;38.29;100357.78;4947423;28;99476;-47
2021/12/26 00:05:28;;;;;;;2.00;1.50;;;16.60;81.50;;;16.50;38.39;100358.63;4945813;28;98017;-49
2021/12/26 00:07:55;;;;;;;2.03;1.40;;;16.60;80.10;;;16.44;38.21;100357.19;4950461;28;96993;-46
2021/12/26 00:10:23;;;;;;;1.30;1.20;;;16.60;81.40;;;16.45;38.54;100353.56;4941339;28;99087;-46
2021/12/26 00:12:50;;;;;;;1.97;1.50;;;16.60;81.50;;;16.45;38.12;100366.03;4950627;28;98252;-46
2021/12/26 00:15:16;;;;;;;1.43;1.33;;;16.60;80.90;;;16.44;38.73;100359.00;4962163;28;99102;-50
2021/12/26 00:17:42;;;;;;;1.30;1.10;;;16.60;81.60;;;16.47;38.25;100364.13;4950549;28;98500;-46
2021/12/26 00:20:10;;;;;;;2.03;1.60;;;16.60;81.30;;;16.49;38.35;100362.22;4965155;28;99712;-45
2021/12/26 00:22:38;;;;;;;1.53;1.43;;;16.60;81.10;;;16.49;38.36;100362.22;4950479;27;102695;-47
2021/12/26 00:25:05;;;;;;;1.53;1.43;;;16.60;81.30;;;16.48;38.40;100355.19;4946619;28;98884;-49
2021/12/26 00:27:32;;;;;;;1.80;1.50;;;16.60;81.20;;;16.47;38.28;100340.16;4947333;28;98288;-46
2021/12/26 00:29:58;;;;;;;1.83;1.60;;;16.60;80.30;;;16.50;38.71;100348.84;4961571;28;98595;-52
2021/12/26 00:32:23;;;;;;;1.40;1.30;;;16.70;81.40;;;16.49;39.20;100354.22;4948533;27;98213;-46
2021/12/26 00:34:50;;;;;;;1.77;1.30;;;16.70;82.40;;;16.50;38.98;100345.31;4951212;28;109748;-45
2021/12/26 00:37:17;;;;;;;1.53;1.30;;;16.70;82.40;;;16.51;39.11;100339.03;4964323;28;98725;-46
2021/12/26 00:39:44;;;;;;;1.43;1.27;;;16.70;82.40;;;16.48;38.96;100334.75;4952693;28;99686;-47
2021/12/26 00:42:10;;;;;;;1.60;1.50;;;16.70;81.90;;;16.47;38.26;100337.50;4951325;28;98834;-49
2021/12/26 00:44:39;;;;;;;1.40;1.30;;;16.70;82.10;;;16.48;38.48;100333.88;4947761;28;97816;-47
2021/12/26 00:47:11;;;;;;;1.77;1.17;;;16.70;81.10;;;16.49;38.00;100332.94;4960804;28;100119;-48
2021/12/26 00:49:38;;;;;;;1.50;1.40;;;16.70;80.90;;;16.50;38.02;100326.69;4963763;28;105206;-47
2021/12/26 00:52:06;;;;;;;2.27;1.50;;;16.70;80.20;;;16.53;37.73;100327.31;4948095;28;97170;-47
2021/12/26 00:54:34;;;;;;;1.40;1.30;;;16.70;79.90;;;16.52;37.84;100330.09;4947130;27;98517;-46
2021/12/26 00:57:00;;;;;;;1.60;1.50;;;16.70;79.70;;;16.50;37.54;100321.34;4951672;28;99066;-49
2021/12/26 00:59:27;;;;;;;1.27;1.17;;;16.70;80.00;;;16.52;37.71;100322.97;4957296;28;99849;-48
2021/12/26 01:01:55;;;;;;;2.13;1.60;;;16.60;80.10;;;16.52;37.87;100316.78;4949205;28;98517;-46
2021/12/26 01:04:22;;;;;;;1.37;1.23;;;16.70;80.00;;;16.56;37.66;100320.94;4948079;28;98452;-50
2021/12/26 01:06:49;;;;;;;2.10;1.37;;;16.70;80.20;;;16.56;37.58;100318.28;4951868;28;100656;-49
2021/12/26 01:09:21;;;;;;;2.07;1.50;;;16.70;80.00;;;16.58;37.51;100319.88;4939509;28;98356;-46
2021/12/26 01:11:52;;;;;;;2.17;1.70;;;16.70;79.80;;;16.57;37.70;100325.31;4952758;28;101139;-46
2021/12/26 01:14:25;;;;;;;1.60;1.50;;;16.80;80.40;;;16.52;37.26;100319.44;4944960;28;99030;-46
2021/12/26 01:17:01;;;;;;;1.50;1.40;;;16.70;79.80;;;16.51;37.27;100317.75;4956218;28;102841;-47
2021/12/26 01:19:32;;;;;;;1.67;1.57;;;16.70;79.50;;;16.57;37.64;100317.31;4946127;28;96534;-45
2021/12/26 01:21:59;;;;;;;1.30;1.20;;;16.80;79.70;;;16.54;37.80;100320.19;4956538;28;97151;-47
2021/12/26 01:24:25;;;;;;;1.37;1.20;;;16.70;79.70;;;16.55;37.07;100321.91;4944489;28;97345;-46
2021/12/26 01:26:51;;;;;;;1.47;1.37;;;16.70;79.40;;;16.53;37.81;100323.81;4949590;28;98918;-44
2021/12/26 01:29:17;;;;;;;1.50;1.30;;;16.70;79.70;;;16.53;37.30;100322.00;4944935;28;100593;-44
2021/12/26 01:31:43;;;;;;;1.53;1.30;;;16.70;79.60;;;16.52;38.20;100328.28;4948042;28;103934;-49
2021/12/26 01:34:09;;;;;;;2.17;1.37;;;16.70;79.90;;;16.51;38.14;100323.06;4947561;28;97819;-46
2021/12/26 01:36:36;;;;;;;1.40;1.30;;;16.70;80.90;;;16.54;38.00;100333.50;4946258;28;98462;-49
2021/12/26 01:39:07;;;;;;;1.23;1.13;;;16.80;80.70;;;16.57;37.67;100335.97;4951969;28;98787;-51
2021/12/26 01:41:38;;;;;;;1.93;1.57;;;16.70;80.10;;;16.55;37.35;100335.22;4961554;27;98682;-44
2021/12/26 01:44:08;;;;;;;1.30;1.20;;;16.70;79.50;;;16.55;37.54;100329.88;4967908;28;97569;-50
2021/12/26 01:46:34;;;;;;;1.43;1.33;;;16.70;79.40;;;16.55;36.90;100319.22;4953005;28;98597;-47
2021/12/26 01:49:15;;;;;;;1.70;1.50;;;16.70;79.20;;;16.51;37.44;100328.38;4954184;28;99498;-48
2021/12/26 01:51:43;;;;;;;1.43;1.23;;;16.60;78.30;;;16.34;37.49;100321.47;4956496;28;103074;-47
2021/12/26 01:54:11;;;;;;;1.33;1.20;;;16.40;78.20;;;16.22;37.77;100316.97;4963677;28;97303;-48
2021/12/26 01:56:41;;;;;;;1.20;1.07;;;16.10;79.50;;;16.14;38.11;100320.09;4950148;28;102854;-46
2021/12/26 01:59:10;;;;;;;1.37;1.27;;;16.10;80.30;;;16.08;38.34;100320.50;4947199;28;99028;-45
2021/12/26 02:01:36;;;;;;;1.47;1.37;;;16.00;80.50;;;15.98;38.40;100317.56;4957604;28;101339;-44
2021/12/26 02:04:03;;;;;;;1.37;1.20;;;15.80;81.40;;;16.01;38.56;100319.16;4944834;28;97498;-46
2021/12/26 02:06:29;;;;;;;2.70;2.50;;;15.90;81.50;;;16.01;36.85;100316.50;4963584;28;97324;-44
2021/12/26 02:08:56;;;;;;;1.97;1.70;;;16.00;75.50;;;15.99;38.32;100321.09;4949922;28;98206;-47
2021/12/26 02:11:22;;;;;;;1.83;1.40;;;15.90;80.40;;;15.94;37.82;100309.88;4948546;28;99734;-49
2021/12/26 02:13:48;;;;;;;1.53;1.43;;;15.90;76.70;;;15.88;38.81;100305.78;4950731;28;97561;-46
2021/12/26 02:16:14;;;;;;;3.30;2.70;;;15.70;82.00;;;15.86;38.35;100298.88;4945101;28;96997;-46
2021/12/26 02:18:41;;;;;;;1.47;1.37;;;15.70;79.30;;;15.87;39.17;100305.88;4944676;28;99850;-47
2021/12/26 02:24:03;;;;;;;1.80;1.43;;;15.90;83.70;;;15.91;39.51;100308.28;4946267;28;97922;-44
2021/12/26 02:29:13;;;;;;;1.40;1.30;;;15.90;81.20;;;15.97;38.79;100296.38;4963642;28;97653;-48
2021/12/26 02:31:39;;;;;;;1.43;1.33;;;16.00;82.50;;;16.00;38.81;100298.84;4956749;28;100155;-47
2021/12/26 02:34:05;;;;;;;1.37;1.20;;;16.10;81.80;;;16.03;39.02;100314.59;4989013;28;97456;-45
2021/12/26 02:36:30;;;;;;;1.70;1.30;;;16.10;80.10;;;16.02;38.74;100300.44;4969361;28;98133;-46
2021/12/26 02:38:58;;;;;;;1.40;1.30;;;16.10;79.90;;;16.05;38.48;100299.41;4975133;28;98525;-45
2021/12/26 02:41:24;;;;;;;1.13;1.03;;;16.10;80.70;;;16.06;38.89;100298.47;4965465;28;97330;-45
2021/12/26 02:43:50;;;;;;;1.20;1.10;;;16.10;81.90;;;16.10;38.50;100302.63;4991142;28;96809;-46
2021/12/26 02:46:16;;;;;;;1.70;1.27;;;16.10;81.70;;;16.03;38.86;100301.31;4969743;28;97623;-45
2021/12/26 02:48:42;;;;;;;1.57;1.47;;;16.00;80.60;;;15.97;38.87;100301.72;4978816;28;97050;-48
2021/12/26 02:51:08;;;;;;;1.63;1.47;;;15.90;77.60;;;15.94;38.80;100289.47;4974284;28;102122;-44
2021/12/26 02:53:34;;;;;;;1.40;1.30;;;15.90;82.10;;;15.84;39.06;100295.44;4970965;28;96927;-48
2021/12/26 02:56:02;;;;;;;1.40;1.30;;;15.70;81.90;;;15.73;39.42;100294.31;4973377;28;97271;-44
2021/12/26 02:58:28;;;;;;;1.30;1.13;;;15.50;83.10;;;15.75;39.42;100292.41;4968877;28;97129;-46
2021/12/26 03:01:06;;;;;;;1.43;1.33;;;15.60;82.80;;;15.75;39.37;100295.06;4976354;28;97799;-46
2021/12/26 03:03:32;;;;;;;2.63;2.43;;;15.60;83.50;;;15.70;39.28;100297.16;4969171;28;96741;-47
2021/12/26 03:06:11;;;;;;;1.63;1.53;;;15.60;80.60;;;15.65;34.33;100295.75;4975946;28;97431;-48
2021/12/26 03:08:37;;;;;;;2.30;1.77;;;15.60;75.00;;;15.68;39.30;100301.72;4965788;28;103873;-45
2021/12/26 03:11:03;;;;;;;1.67;1.57;;;15.50;80.50;;;15.62;39.60;100296.81;4974820;28;98641;-49
2021/12/26 03:13:29;;;;;;;2.20;1.87;;;15.40;80.30;;;15.67;39.59;100294.72;4971993;28;97208;-46
2021/12/26 03:15:55;;;;;;;1.47;1.37;;;15.50;82.80;;;15.71;39.62;100300.69;4989666;28;96905;-46
2021/12/26 03:18:21;;;;;;;1.77;1.67;;;15.60;83.50;;;15.73;39.73;100299.63;4970566;28;101619;-45
2021/12/26 03:20:50;;;;;;;1.60;1.47;;;15.70;81.60;;;15.81;39.65;100295.66;4975374;28;97437;-45
2021/12/26 03:23:23;;;;;;;1.50;1.40;;;15.80;83.50;;;15.80;39.71;100299.25;4969275;28;96964;-44
2021/12/26 03:25:49;;;;;;;1.57;1.40;;;15.70;81.90;;;15.73;39.15;100288.13;4970007;28;96971;-47
2021/12/26 03:28:17;;;;;;;1.83;1.60;;;15.60;82.30;;;15.64;39.44;100294.91;4964205;28;100647;-47
2021/12/26 03:30:44;;;;;;;3.87;3.53;;;15.40;83.50;;;15.68;37.69;100296.41;4972633;28;97346;-45
2021/12/26 03:33:13;;;;;;;1.70;1.60;;;15.50;77.30;;;15.74;39.02;100289.84;4994470;28;97049;-44
2021/12/26 03:35:40;;;;;;;1.40;1.30;;;15.60;82.60;;;15.79;39.52;100281.59;4975012;28;97131;-46
2021/12/26 03:38:08;;;;;;;1.50;1.40;;;15.70;82.90;;;15.88;39.53;100287.16;4975277;28;103570;-44
2021/12/26 03:40:34;;;;;;;1.50;1.40;;;15.90;82.40;;;15.95;38.64;100287.66;4974176;28;98375;-47
2021/12/26 03:43:01;;;;;;;1.63;1.53;;;16.00;80.80;;;15.98;38.73;100284.78;4992357;28;98955;-44
2021/12/26 03:45:26;;;;;;;1.47;1.33;;;16.00;81.60;;;16.00;38.52;100290.88;4976063;28;96710;-47
2021/12/26 03:47:52;;;;;;;2.17;1.67;;;16.10;80.80;;;15.99;38.31;100290.00;4957945;28;98536;-43
2021/12/26 03:50:22;;;;;;;1.60;1.50;;;16.10;80.40;;;15.94;38.32;100286.81;4973901;28;99404;-47
2021/12/26 03:52:51;;;;;;;1.57;1.47;;;15.90;79.20;;;15.98;38.80;100282.13;4972806;28;96917;-44
2021/12/26 03:55:18;;;;;;;1.60;1.47;;;16.00;82.10;;;16.02;38.64;100280.97;4972831;28;97507;-46
2021/12/26 03:57:44;;;;;;;1.40;1.30;;;16.00;81.00;;;15.98;38.41;100274.16;4976754;28;97860;-44
2021/12/26 04:00:14;;;;;;;1.83;1.60;;;16.00;79.70;;;15.93;38.51;100276.25;4979378;28;98215;-44
2021/12/26 04:02:40;;;;;;;2.00;1.80;;;15.90;78.60;;;15.77;38.64;100269.25;4971341;28;98128;-44
2021/12/26 04:05:07;;;;;;;1.67;1.57;;;15.60;81.10;;;15.71;38.97;100272.28;4974536;28;97298;-44
2021/12/26 04:07:32;;;;;;;1.70;1.60;;;15.60;81.30;;;15.70;39.17;100262.59;4986110;28;97404;-45
2021/12/26 04:09:58;;;;;;;1.83;1.63;;;15.50;82.90;;;15.64;39.12;100260.34;4972183;28;99089;-45
2021/12/26 04:12:24;;;;;;;1.90;1.57;;;15.50;82.00;;;15.63;39.33;100266.63;4976412;28;103912;-46
2021/12/26 04:14:50;;;;;;;1.63;1.53;;;15.50;82.90;;;15.60;39.53;100264.13;4977036;28;97176;-45
2021/12/26 04:17:16;;;;;;;2.03;1.80;;;15.40;82.00;;;15.58;39.26;100270.47;4973904;28;98634;-48
2021/12/26 04:19:42;;;;;;;1.67;1.57;;;15.40;83.20;;;15.46;39.58;100269.41;4976091;28;109975;-44
2021/12/26 04:22:08;;;;;;;4.60;4.20;;;15.20;82.60;;;15.35;38.59;100270.09;4991329;28;98307;-44
2021/12/26 04:24:34;;;;;;;1.67;1.57;;;15.10;78.40;;;15.33;39.41;100276.44;4975975;28;97290;-45
2021/12/26 04:27:00;;;;;;;1.87;1.73;;;15.00;78.70;;;15.36;40.28;100265.63;4977085;28;98826;-44
2021/12/26 04:29:26;;;;;;;1.83;1.43;;;15.00;85.30;;;15.36;40.26;100271.81;4992490;28;101760;-43
2021/12/26 04:31:52;;;;;;;2.27;1.60;;;15.10;84.60;;;15.37;40.21;100270.00;4975068;28;96878;-44
2021/12/26 04:34:17;;;;;;;3.57;3.27;;;15.10;84.40;;;15.35;35.64;100266.59;4973539;28;97001;-45
2021/12/26 04:36:44;;;;;;;1.60;1.50;;;15.20;78.50;;;15.46;40.09;100264.09;4975482;28;105145;-46
2021/12/26 04:39:10;;;;;;;2.00;1.77;;;15.30;84.80;;;15.52;39.93;100263.72;4972783;28;117126;-45
2021/12/26 04:41:35;;;;;;;2.43;2.23;;;15.50;80.60;;;15.56;39.64;100256.41;4987364;28;97741;-44
2021/12/26 04:44:02;;;;;;;1.77;1.67;;;15.50;81.20;;;15.53;40.02;100253.94;4989902;28;97085;-45
2021/12/26 04:46:28;;;;;;;1.87;1.77;;;15.40;80.90;;;15.50;39.85;100260.31;4972166;28;96874;-47
2021/12/26 04:48:54;;;;;;;1.60;1.50;;;15.40;79.70;;;15.55;40.12;100255.56;4973836;28;100030;-46
2021/12/26 04:51:19;;;;;;;1.93;1.60;;;15.40;84.30;;;15.67;39.72;100259.28;4975343;28;97083;-46
2021/12/26 04:53:45;;;;;;;1.87;1.53;;;15.70;84.00;;;15.70;39.75;100251.97;4974486;28;97764;-45
2021/12/26 04:56:11;;;;;;;1.57;1.47;;;15.70;83.00;;;15.76;39.47;100251.56;4977927;28;100380;-46
2021/12/26 04:58:39;;;;;;;1.93;1.70;;;15.80;84.30;;;15.88;39.33;100255.25;4970029;28;102405;-46
2021/12/26 05:01:05;;;;;;;1.87;1.57;;;15.90;82.80;;;15.92;39.38;100245.31;4957689;28;97163;-44
2021/12/26 05:03:31;;;;;;;1.70;1.60;;;16.00;82.70;;;16.00;38.81;100248.31;4968574;28;98518;-45
2021/12/26 05:05:57;;;;;;;2.50;2.10;;;16.10;82.20;;;16.02;38.96;100251.72;4977116;27;97062;-48
2021/12/26 05:08:23;;;;;;;1.50;1.40;;;16.10;81.30;;;16.08;39.17;100246.00;4964074;28;98691;-49
2021/12/26 05:10:49;;;;;;;1.67;1.47;;;16.20;82.50;;;16.11;39.31;100240.50;4973133;28;97005;-44
2021/12/26 05:13:15;;;;;;;1.50;1.40;;;16.30;82.10;;;16.16;38.92;100241.03;4971812;28;97833;-45
2021/12/26 05:15:40;;;;;;;2.20;2.00;;;16.30;81.30;;;16.20;38.50;100237.25;4974773;28;98783;-44
2021/12/26 05:18:06;;;;;;;2.13;1.83;;;16.40;80.80;;;16.22;38.51;100253.94;4993786;28;97902;-46
2021/12/26 05:20:33;;;;;;;2.10;1.80;;;16.40;80.80;;;16.22;38.00;100243.31;4970026;28;97587;-47
2021/12/26 05:23:01;;;;;;;1.87;1.70;;;16.40;80.10;;;16.17;37.73;100256.03;4975698;28;96855;-47
2021/12/26 05:25:27;;;;;;;2.50;2.23;;;16.30;79.40;;;16.03;38.39;100250.75;4968808;28;97720;-46
2021/12/26 05:27:54;;;;;;;2.33;2.10;;;16.00;78.20;;;15.92;38.67;100255.94;4975168;28;97045;-47
2021/12/26 05:30:23;;;;;;;2.63;2.43;;;15.80;76.90;;;15.81;39.00;100255.75;4972633;28;97345;-47
2021/12/26 05:32:49;;;;;;;1.70;1.60;;;15.60;75.70;;;15.82;39.42;100245.03;4973603;28;97411;-47
2021/12/26 05:35:16;;;;;;;2.53;2.33;;;15.60;83.80;;;15.88;39.31;100243.75;4975172;28;97266;-45
2021/12/26 05:37:44;;;;;;;2.93;2.70;;;15.80;81.80;;;15.80;39.01;100256.72;4973841;28;96986;-45
2021/12/26 05:40:12;;;;;;;1.73;1.63;;;15.70;79.00;;;15.61;39.90;100251.69;4976538;28;98888;-44
2021/12/26 05:42:38;;;;;;;1.70;1.60;;;15.40;82.40;;;15.66;39.47;100238.97;4963256;28;97673;-46
2021/12/26 05:45:06;;;;;;;1.87;1.63;;;15.40;84.40;;;15.72;39.55;100249.22;4991274;28;99429;-44
2021/12/26 05:47:32;;;;;;;1.50;1.40;;;15.60;83.00;;;15.62;39.75;100258.72;4970221;28;100274;-45
2021/12/26 05:50:00;;;;;;;2.03;1.87;;;15.50;81.20;;;15.56;38.19;100253.75;4975484;28;97775;-45
2021/12/26 05:52:26;;;;;;;1.87;1.50;;;15.30;79.30;;;15.63;39.42;100245.34;4973389;28;97014;-44
2021/12/26 05:54:53;;;;;;;1.90;1.80;;;15.50;83.90;;;15.72;39.43;100250.06;4975097;28;98601;-49
2021/12/26 05:57:19;;;;;;;1.93;1.63;;;15.70;83.10;;;15.79;39.10;100260.34;4971016;28;99085;-46
2021/12/26 05:59:45;;;;;;;1.87;1.77;;;15.80;82.20;;;15.83;39.24;100235.25;4973561;28;97389;-47
2021/12/26 06:02:12;;;;;;;1.90;1.80;;;15.90;82.70;;;15.90;38.94;100236.53;4991443;28;96943;-44
2021/12/26 06:04:38;;;;;;;2.20;2.00;;;16.10;81.80;;;15.99;38.98;100246.59;4970019;28;103108;-49
2021/12/26 06:07:04;;;;;;;3.13;2.87;;;16.10;81.50;;;15.94;35.61;100240.72;4975683;28;96996;-46
2021/12/26 06:09:30;;;;;;;3.17;2.20;;;16.00;75.40;;;16.02;38.56;100241.06;4987431;28;98134;-45
2021/12/26 06:11:56;;;;;;;2.33;2.10;;;16.10;80.20;;;16.00;38.62;100243.84;4970441;28;97873;-46
2021/12/26 06:14:22;;;;;;;1.93;1.77;;;16.00;81.60;;;16.05;38.74;100243.53;4969123;28;98950;-46
2021/12/26 06:16:48;;;;;;;3.93;3.57;;;16.10;81.50;;;15.95;36.58;100234.47;4985017;28;98285;-45
2021/12/26 06:19:14;;;;;;;1.97;1.70;;;16.00;76.90;;;16.01;38.84;100234.03;4971918;28;96950;-47
2021/12/26 06:21:40;;;;;;;1.73;1.63;;;16.00;81.70;;;16.06;38.80;100226.66;4986445;28;97161;-44
2021/12/26 06:24:06;;;;;;;1.57;1.47;;;16.20;81.40;;;16.10;38.32;100235.28;4989040;28;97002;-46
2021/12/26 06:26:33;;;;;;;1.60;1.50;;;16.20;80.80;;;16.15;38.09;100233.16;4970261;28;97385;-45
2021/12/26 06:28:59;;;;;;;1.93;1.73;;;16.30;80.70;;;16.14;38.42;100226.97;4975567;28;97110;-44
2021/12/26 06:31:24;;;;;;;1.70;1.60;;;16.30;80.70;;;16.13;38.49;100230.59;4971328;28;96797;-47
2021/12/26 06:33:50;;;;;;;1.83;1.73;;;16.30;80.40;;;16.00;38.58;100232.34;4974594;28;102344;-46
2021/12/26 06:36:17;;;;;;;3.77;3.47;;;16.00;79.90;;;15.97;38.36;100221.91;4969645;28;97977;-44
2021/12/26 06:38:46;;;;;;;1.47;1.37;;;15.90;78.60;;;15.97;38.62;100229.88;4973952;28;96684;-44
2021/12/26 06:41:13;;;;;;;1.70;1.60;;;15.90;80.00;;;15.95;39.04;100231.78;4975796;28;98964;-50
2021/12/26 06:43:39;;;;;;;1.67;1.57;;;15.90;82.30;;;15.99;38.99;100225.31;4974250;28;101786;-47
2021/12/26 06:46:06;;;;;;;1.63;1.50;;;15.90;82.90;;;15.86;39.27;100235.03;4972527;28;97960;-46
2021/12/26 06:48:34;;;;;;;3.17;2.90;;;15.80;80.10;;;15.71;36.81;100227.09;4951336;28;97311;-49
2021/12/26 06:51:01;;;;;;;1.83;1.73;;;15.50;78.10;;;15.75;38.85;100225.94;4976878;28;96870;-45
2021/12/26 06:53:27;;;;;;;2.23;2.03;;;15.60;81.60;;;15.75;39.04;100228.59;4971191;28;97348;-46
2021/12/26 06:55:54;;;;;;;2.13;1.93;;;15.70;82.20;;;15.85;39.03;100225.34;4976444;28;97355;-45
2021/12/26 06:58:20;;;;;;;2.20;2.00;;;15.80;82.40;;;15.81;38.57;100231.84;4973857;28;96834;-47
2021/12/26 07:00:47;;;;;;;2.40;2.20;;;15.70;81.20;;;15.76;38.73;100232.94;4975491;27;97705;-45
2021/12/26 07:03:13;;;;;;;2.53;2.13;;;15.70;81.80;;;15.77;38.82;100216.06;4986920;28;97673;-46
2021/12/26 07:05:39;;;;;;;2.20;1.80;;;15.70;82.30;;;15.71;38.82;100220.91;4973449;28;105815;-46
2021/12/26 07:08:05;;;;;;;1.93;1.83;;;15.70;81.40;;;15.71;38.97;100231.56;4979317;28;97230;-47
2021/12/26 07:10:31;;;;;;;2.03;1.83;;;15.60;80.70;;;15.69;39.23;100231.66;4976483;28;96824;-46
2021/12/26 07:12:57;;;;;;;2.50;1.80;;;15.60;82.20;;;15.67;39.05;100228.25;4975566;28;98547;-46
2021/12/26 07:15:23;;;;;;;2.97;2.37;;;15.60;81.70;;;15.71;39.16;100235.06;4977156;28;96994;-48
2021/12/26 07:17:49;;;;;;;3.97;3.67;;;15.70;81.60;;;15.70;38.46;100236.03;4977552;28;97696;-48
2021/12/26 07:20:15;;;;;;;2.60;2.40;;;15.60;79.10;;;15.78;39.13;100254.16;4974576;28;97754;-46
2021/12/26 07:22:44;;;;;;;2.40;2.17;;;15.80;82.80;;;15.81;39.13;100248.63;4975234;28;96730;-44
2021/12/26 07:25:10;;;;;;;2.30;2.10;;;15.80;82.50;;;15.90;38.71;100248.03;4980373;28;97159;-47
2021/12/26 07:27:36;;;;;;;2.20;2.00;;;15.90;81.70;;;15.90;38.54;100257.81;4972637;28;97624;-45
2021/12/26 07:30:05;;;;;;;2.10;1.90;;;16.00;80.30;;;15.95;38.24;100253.06;4979643;28;97615;-46
2021/12/26 07:32:31;;;;;;;3.03;2.20;;;16.00;80.20;;;15.97;38.47;100253.81;4988731;28;98215;-46
2021/12/26 07:34:58;;;;;;;4.37;3.90;;;16.10;80.80;;;15.93;37.94;100270.94;4991393;28;97165;-44
2021/12/26 07:37:26;;;;;;;2.37;2.20;;;16.00;76.80;;;15.85;38.63;100254.59;4976242;28;97024;-44
2021/12/26 07:39:51;;;;;;;2.27;2.07;;;15.80;81.40;;;15.87;38.49;100256.22;4978385;28;97216;-43
2021/12/26 07:42:17;;;;;;;1.90;1.80;;;15.90;81.40;;;15.80;38.46;100246.94;4973411;28;98946;-46
2021/12/26 07:44:43;;;;;;;2.57;2.37;;;15.80;81.30;;;15.88;38.70;100255.25;4974629;28;108869;-47
2021/12/26 07:47:09;;;;;;;2.03;1.90;;;15.90;81.30;;;15.89;38.65;100256.13;4978501;28;97547;-45
2021/12/26 07:49:35;;;;;;;2.50;2.03;;;15.90;81.30;;;15.80;38.72;100246.09;4972894;28;97932;-46
2021/12/26 07:52:09;;;;;;;2.60;2.40;;;15.80;81.70;;;15.83;38.86;100252.06;4979868;28;101198;-44
2021/12/26 07:54:35;;;;;;;2.40;2.20;;;15.80;79.70;;;15.75;38.65;100260.50;4970907;28;99625;-48
2021/12/26 07:57:01;;;;;;;3.37;2.93;;;15.70;79.20;;;15.74;38.46;100245.50;4977329;28;97152;-45
2021/12/26 07:59:27;;;;;;;2.20;2.00;;;15.70;78.20;;;15.76;38.88;100246.25;4973772;28;99394;-47
2021/12/26 08:01:53;;;;;;;2.40;2.20;;;15.70;81.60;;;15.75;38.96;100247.19;4979615;28;98296;-44
2021/12/26 08:04:19;;;;;;;4.17;3.77;;;15.70;81.40;;;15.74;38.71;100248.16;4973053;28;97531;-46
2021/12/26 08:06:45;;;;;;;2.30;2.10;;;15.70;80.80;;;15.77;39.26;100245.31;4973909;28;97143;-44
2021/12/26 08:09:11;;;;;;;3.20;2.83;;;15.80;82.00;;;15.79;39.06;100242.56;4980919;28;97583;-46
2021/12/26 08:11:37;;;;;;;1.80;1.70;;;15.80;79.20;;;15.74;39.20;100244.66;4973827;28;100545;-47
2021/12/26 08:14:03;;;;;;;2.33;2.13;;;15.60;82.20;;;15.73;39.68;100246.44;4977452;28;99440;-43
2021/12/26 08:16:30;;;;;;;2.27;2.00;;;15.70;82.00;;;15.79;39.26;100244.38;4972842;28;97130;-43
2021/12/26 08:18:56;;;;;;;4.77;4.33;;;15.70;82.50;;;15.84;38.63;100253.75;4976466;28;97464;-44
2021/12/26 08:21:22;;;;;;;2.10;2.00;;;15.90;80.50;;;15.84;38.97;100247.59;4970715;28;97705;-43
2021/12/26 08:23:47;;;;;;;2.17;1.97;;;15.90;82.10;;;15.92;39.15;100246.16;4972242;28;98828;-44
2021/12/26 08:26:14;;;;;;;2.30;2.10;;;16.00;81.80;;;15.98;38.90;100256.38;4973691;28;108665;-49
2021/12/26 08:28:40;;;;;;;2.10;1.83;;;16.10;81.70;;;16.02;39.00;100257.03;4974280;28;97005;-44
2021/12/26 08:31:06;;;;;;;2.70;2.20;;;16.10;81.50;;;16.05;38.90;100248.84;4980891;28;97338;-44
2021/12/26 08:33:32;;;;;;;2.57;1.97;;;16.20;81.50;;;16.12;38.51;100246.66;4972405;28;97375;-45
2021/12/26 08:35:59;;;;;;;1.90;1.80;;;16.30;80.80;;;16.17;38.31;100245.41;4982152;28;96977;-43
2021/12/26 08:38:25;;;;;;;2.07;1.90;;;16.40;80.30;;;16.20;38.15;100249.66;4988660;28;97743;-47
2021/12/26 08:40:53;;;;;;;2.60;2.40;;;16.40;80.00;;;16.23;38.34;100247.69;4991198;28;98544;-44
2021/12/26 08:43:20;;;;;;;2.70;2.50;;;16.40;80.40;;;16.30;38.06;100242.78;4984977;28;97268;-48
2021/12/26 08:45:48;;;;;;;2.40;2.20;;;16.50;80.50;;;16.29;38.21;100244.59;4976397;28;97273;-44
2021/12/26 08:48:14;;;;;;;2.27;2.07;;;16.40;80.60;;;16.31;38.50;100247.16;4968701;28;99360;-51
2021/12/26 08:50:42;;;;;;;3.03;2.57;;;16.50;80.60;;;16.33;38.48;100248.75;4990767;27;99716;-45
2021/12/26 08:53:08;;;;;;;2.13;1.93;;;16.50;80.20;;;16.25;38.32;100248.44;4993531;28;97008;-45
2021/12/26 08:55:34;;;;;;;2.17;1.97;;;16.30;79.70;;;16.27;38.05;100245.66;4968702;28;96746;-48
2021/12/26 08:58:00;;;;;;;6.97;6.30;;;16.30;79.70;;;16.15;37.41;100251.78;4977187;28;96970;-46
2021/12/26 09:00:27;;;;;;;2.20;2.00;;;16.10;75.80;;;16.12;38.57;100244.84;4953559;28;99218;-48
2021/12/26 09:02:53;;;;;;;5.57;5.07;;;16.10;80.30;;;16.14;36.24;100250.06;4991988;28;100011;-45
2021/12/26 09:05:19;;;;;;;2.80;2.37;;;16.20;75.60;;;16.10;38.12;100254.75;4969675;28;96673;-43
2021/12/26 09:07:46;;;;;;;2.20;2.00;;;16.00;78.70;;;16.09;38.83;100252.19;4975999;28;96726;-44
2021/12/26 09:10:13;;;;;;;2.30;2.10;;;16.00;81.50;;;16.13;39.05;100251.88;4993003;28;101655;-43
2021/12/26 09:12:40;;;;;;;2.20;2.00;;;16.10;81.70;;;16.17;38.91;100252.53;4971883;28;104327;-48
2021/12/26 09:15:08;;;;;;;3.80;3.00;;;16.30;81.70;;;16.21;38.72;100246.94;4973417;28;97005;-44
2021/12/26 09:17:34;;;;;;;2.20;2.00;;;16.40;79.00;;;16.23;38.89;100266.31;4987698;28;96975;-46
2021/12/26 09:20:00;;;;;;;4.20;2.40;;;16.40;81.40;;;16.21;39.08;100267.38;4978577;28;98395;-44
2021/12/26 09:22:26;;;;;;;2.77;2.57;;;16.30;81.00;;;16.24;38.93;100270.66;4985910;28;97102;-44
2021/12/26 09:24:52;;;;;;;2.77;2.57;;;16.40;81.20;;;16.28;38.45;100272.16;4989847;28;96639;-45
2021/12/26 09:27:19;;;;;;;2.80;2.60;;;16.40;80.10;;;16.32;38.84;100272.81;4973435;28;97002;-46
2021/12/26 09:29:45;;;;;;;2.47;2.27;;;16.50;81.00;;;16.28;38.63;100274.81;4972280;28;97585;-43
2021/12/26 09:32:11;;;;;;;2.47;2.23;;;16.50;81.20;;;16.25;38.54;100268.88;4972564;28;97208;-47
2021/12/26 09:34:37;;;;;;;4.30;3.40;;;16.40;81.10;;;16.11;38.62;100276.88;4961409;28;98980;-47
2021/12/26 09:37:08;;;;;;;2.30;2.07;;;16.10;78.40;;;16.08;39.19;100277.09;4965171;28;97548;-48
2021/12/26 09:39:34;;;;;;;2.40;2.20;;;16.00;81.70;;;16.08;39.15;100277.09;4959146;28;101135;-44
2021/12/26 09:42:00;;;;;;;2.70;2.50;;;16.10;81.80;;;16.13;38.84;100275.81;4954777;28;99080;-45
2021/12/26 09:44:27;;;;;;;3.10;2.80;;;16.20;81.20;;;16.17;39.11;100268.50;4961504;28;99900;-47
2021/12/26 09:46:53;;;;;;;2.70;2.50;;;16.30;81.50;;;16.20;38.93;100266.50;4965539;28;99854;-44
2021/12/26 09:49:19;;;;;;;6.13;5.57;;;16.40;81.40;;;16.18;37.65;100260.41;4951513;28;100099;-46
2021/12/26 09:51:46;;;;;;;2.37;2.17;;;16.40;78.00;;;16.18;38.76;100260.41;4952093;28;97487;-48
2021/12/26 09:54:12;;;;;;;3.93;3.63;;;16.30;80.90;;;16.16;38.44;100272.97;4968562;28;100419;-43
2021/12/26 09:56:38;;;;;;;3.80;3.43;;;16.30;78.60;;;16.18;38.21;100265.72;4946608;28;100264;-47
2021/12/26 09:59:18;;;;;;;3.50;3.20;;;16.30;78.50;;;16.14;38.30;100264.22;4955015;28;100346;-43
2021/12/26 10:01:54;;;;;;;3.03;2.83;;;16.20;79.90;;;16.10;38.57;100265.38;4958196;28;101691;-43
2021/12/26 10:04:31;;;;;;;2.83;2.57;;;16.10;81.20;;;15.97;38.64;100267.13;4945180;28;97219;-44
2021/12/26 10:06:58;;;;;;;4.73;3.43;;;15.90;82.00;;;15.76;38.88;100256.03;4953097;28;97715;-47
2021/12/26 10:09:25;;;;;;;2.77;2.57;;;15.70;79.70;;;15.84;38.98;100255.56;4948240;28;100278;-44
2021/12/26 10:11:55;;;;;;;2.50;2.27;;;15.70;82.80;;;15.92;38.80;100259.44;4953953;28;99239;-47
2021/12/26 10:14:33;;;;;;;2.57;2.30;;;15.90;82.00;;;16.01;38.84;100260.66;4946020;28;98110;-44